sim
Sign-in with your pilot id or email,
or register
Callsign
Passwort

Schedule Details

Flight Number: EWG1785 (1)
Departure: Cologne Bonn Airport (EDDK) at 07:20
Arrival: Munich Airport (EDDM) at 08:30
Route: Eurowings Passenger Schedule. Enter filed route here before submitting Pirep.

Weather Information
Getting current METAR information for EDDK 210220Z 11003KT 360V150 CAVOK 08/06 Q1016 NOSIG
Getting current METAR information for EDDM 210220Z VRB02KT CAVOK 09/09 Q1016 NOSIG

Schedule Frequency

Route Map